Time;durP1;ratioP1;P1;durP2;ratioP2;P2;SDS_P1;SDS_P2;PMS_P1;PMS_P2;Temp;Humidity;BMP_temperature;BMP_pressure;BME280_temperature;BME280_humidity;BME280_pressure;Samples;Min_cycle;Max_cycle;Signal;HPM_P1;HPM_P2
2023/06/10 00:01:04;;;;;;;;;;;;;;;21.65;33.63;100488.13;4963370;27;98303;-67
2023/06/10 00:03:31;;;;;;;;;;;;;;;21.59;33.74;100482.06;4985760;27;98156;-74
2023/06/10 00:05:58;;;;;;;;;;;;;;;21.55;33.63;100486.63;4964535;27;98787;-74
2023/06/10 00:08:25;;;;;;;;;;;;;;;21.48;33.72;100498.16;4979205;27;98253;-74
2023/06/10 00:10:52;;;;;;;;;;;;;;;21.44;33.75;100493.69;4980100;27;98138;-67
2023/06/10 00:13:19;;;;;;;;;;;;;;;21.39;33.76;100500.19;4972976;27;98312;-67
2023/06/10 00:15:46;;;;;;;;;;;;;;;21.37;33.79;100501.66;4969864;27;100501;-74
2023/06/10 00:18:12;;;;;;;;;;;;;;;21.31;33.89;100501.88;4966630;27;98944;-69
2023/06/10 00:20:39;;;;;;;;;;;;;;;21.28;33.85;100501.72;4962919;27;98330;-67
2023/06/10 00:23:08;;;;;;;;;;;;;;;21.23;33.85;100502.75;4964083;27;100286;-67
2023/06/10 00:25:35;;;;;;;;;;;;;;;21.20;33.80;100505.38;4969196;27;99669;-69
2023/06/10 00:28:02;;;;;;;;;;;;;;;21.15;33.82;100503.66;4935315;27;98145;-74
2023/06/10 00:30:28;;;;;;;;;;;;;;;21.11;33.91;100505.47;4961802;27;98307;-74
2023/06/10 00:32:57;;;;;;;;;;;;;;;21.06;33.86;100498.25;4943313;28;97933;-67
2023/06/10 00:35:24;;;;;;;;;;;;;;;21.02;33.95;100502.78;4971191;27;101563;-73
2023/06/10 00:37:50;;;;;;;;;;;;;;;20.98;34.07;100499.09;4971563;27;98136;-73
2023/06/10 00:40:17;;;;;;;;;;;;;;;20.94;34.04;100500.13;4978831;27;98527;-67
2023/06/10 00:42:45;;;;;;;;;;;;;;;20.91;33.99;100506.28;4982983;27;98539;-67
2023/06/10 00:45:11;;;;;;;;;;;;;;;20.87;34.19;100505.34;4965820;27;98251;-67
2023/06/10 00:47:37;;;;;;;;;;;;;;;20.84;33.97;100509.56;4962740;27;98246;-74
2023/06/10 00:50:05;;;;;;;;;;;;;;;20.80;34.05;100506.69;4966119;27;98665;-74
2023/06/10 00:52:31;;;;;;;;;;;;;;;20.78;34.04;100508.94;4961546;27;98209;-73
2023/06/10 00:54:58;;;;;;;;;;;;;;;20.75;34.04;100504.16;4966780;27;97933;-67
2023/06/10 00:57:26;;;;;;;;;;;;;;;20.72;34.14;100504.81;4966057;27;97859;-67
2023/06/10 00:59:53;;;;;;;;;;;;;;;20.70;34.06;100500.81;4953655;27;98059;-74
2023/06/10 01:02:20;;;;;;;;;;;;;;;20.67;34.05;100501.47;4982581;27;98544;-67
2023/06/10 01:04:48;;;;;;;;;;;;;;;20.63;34.18;100501.34;4951182;27;98351;-67
2023/06/10 01:07:28;;;;;;;;;;;;;;;20.61;34.06;100506.34;4976952;27;98009;-74
2023/06/10 01:10:11;;;;;;;;;;;;;;;20.57;34.17;100510.91;4964497;27;98391;-67
2023/06/10 01:12:48;;;;;;;;;;;;;;;20.56;34.21;100514.78;4981713;27;98107;-74
2023/06/10 01:15:16;;;;;;;;;;;;;;;20.52;34.10;100519.31;4966051;27;99438;-74
2023/06/10 01:17:59;;;;;;;;;;;;;;;20.50;34.20;100513.34;4970515;27;97963;-67
2023/06/10 01:20:29;;;;;;;;;;;;;;;20.47;34.22;100516.72;4966289;27;99300;-74
2023/06/10 01:22:57;;;;;;;;;;;;;;;20.45;34.23;100514.34;4978993;27;97922;-67
2023/06/10 01:25:28;;;;;;;;;;;;;;;20.42;34.08;100516.94;4966138;27;99163;-74
2023/06/10 01:28:06;;;;;;;;;;;;;;;20.38;34.17;100511.31;4959921;27;98219;-67
2023/06/10 01:31:00;;;;;;;;;;;;;;;20.36;34.22;100516.34;4977425;27;98120;-73
2023/06/10 01:33:29;;;;;;;;;;;;;;;20.33;34.22;100528.75;4998213;27;100075;-73
2023/06/10 01:36:00;;;;;;;;;;;;;;;20.30;34.38;100526.66;4978694;27;98297;-74
2023/06/10 01:38:26;;;;;;;;;;;;;;;20.28;34.13;100519.94;4994692;27;98849;-74
2023/06/10 01:40:54;;;;;;;;;;;;;;;20.26;34.18;100539.41;4960710;27;98787;-74
2023/06/10 01:43:21;;;;;;;;;;;;;;;20.21;34.27;100547.00;4963812;27;97991;-74
2023/06/10 01:45:49;;;;;;;;;;;;;;;20.12;34.34;100552.50;4975861;27;98564;-67
2023/06/10 01:48:16;;;;;;;;;;;;;;;20.04;34.48;100553.34;4980484;27;97956;-67
2023/06/10 01:50:43;;;;;;;;;;;;;;;19.97;34.38;100555.81;4977196;27;98144;-66
2023/06/10 01:53:10;;;;;;;;;;;;;;;19.90;34.45;100569.19;4966216;27;100454;-74
2023/06/10 01:55:36;;;;;;;;;;;;;;;19.84;34.47;100554.88;4963715;27;98327;-67
2023/06/10 01:58:02;;;;;;;;;;;;;;;19.82;34.37;100568.09;4949865;27;98011;-67
2023/06/10 02:00:29;;;;;;;;;;;;;;;19.80;34.61;100570.31;4967372;27;98194;-73
2023/06/10 02:02:55;;;;;;;;;;;;;;;19.78;34.58;100569.88;4967665;27;98139;-74
2023/06/10 02:05:22;;;;;;;;;;;;;;;19.75;34.43;100571.31;4957112;27;98666;-67
2023/06/10 02:07:50;;;;;;;;;;;;;;;19.72;34.58;100568.44;4966403;27;98651;-74
2023/06/10 02:10:16;;;;;;;;;;;;;;;19.70;34.59;100578.91;4967849;27;98629;-74
2023/06/10 02:12:44;;;;;;;;;;;;;;;19.69;34.59;100571.81;4960853;27;98334;-74
2023/06/10 02:15:10;;;;;;;;;;;;;;;19.67;34.51;100583.09;4934696;27;98482;-74
2023/06/10 02:17:37;;;;;;;;;;;;;;;19.66;34.41;100583.41;4965520;27;98097;-67
2023/06/10 02:20:10;;;;;;;;;;;;;;;19.64;34.65;100586.47;4961630;27;99591;-67
2023/06/10 02:22:37;;;;;;;;;;;;;;;19.62;34.74;100580.53;4963989;27;97999;-74
2023/06/10 02:25:04;;;;;;;;;;;;;;;19.61;34.61;100592.56;4922778;27;98144;-74
2023/06/10 02:27:31;;;;;;;;;;;;;;;19.59;34.65;100594.81;4961053;27;98210;-67
2023/06/10 02:29:58;;;;;;;;;;;;;;;19.57;34.51;100586.13;4944839;28;98193;-67
2023/06/10 02:32:25;;;;;;;;;;;;;;;19.54;34.73;100593.06;4957755;27;98554;-74
2023/06/10 02:34:52;;;;;;;;;;;;;;;19.53;34.68;100587.88;4946171;27;98782;-74
2023/06/10 02:37:18;;;;;;;;;;;;;;;19.50;34.31;100588.56;4968466;27;99667;-74
2023/06/10 02:39:45;;;;;;;;;;;;;;;19.48;34.40;100582.59;4962661;27;102717;-74
2023/06/10 02:42:12;;;;;;;;;;;;;;;19.47;34.61;100595.47;4966167;27;98340;-67
2023/06/10 02:44:39;;;;;;;;;;;;;;;19.46;34.84;100587.59;4979354;27;98408;-67
2023/06/10 02:47:06;;;;;;;;;;;;;;;19.43;34.63;100586.31;4950062;27;98173;-67
2023/06/10 02:49:34;;;;;;;;;;;;;;;19.42;34.71;100578.44;4965406;27;98073;-67
2023/06/10 02:52:00;;;;;;;;;;;;;;;19.40;34.51;100577.97;4955701;27;98136;-74
2023/06/10 02:54:28;;;;;;;;;;;;;;;19.39;34.52;100585.34;4964356;27;99538;-74
2023/06/10 02:56:55;;;;;;;;;;;;;;;19.37;34.59;100579.41;4947913;28;98021;-67
2023/06/10 02:59:22;;;;;;;;;;;;;;;19.36;34.74;100583.25;4930259;27;99568;-74
2023/06/10 03:01:48;;;;;;;;;;;;;;;19.35;34.75;100593.41;4928479;27;98022;-67
2023/06/10 03:04:15;;;;;;;;;;;;;;;19.35;34.76;100584.41;4955291;27;98393;-67
2023/06/10 03:06:45;;;;;;;;;;;;;;;19.34;34.71;100578.13;4955115;27;98142;-67
2023/06/10 03:09:11;;;;;;;;;;;;;;;19.35;34.63;100590.66;4959549;27;98232;-67
2023/06/10 03:11:38;;;;;;;;;;;;;;;19.34;34.70;100582.81;4975995;27;98072;-66
2023/06/10 03:14:05;;;;;;;;;;;;;;;19.35;34.70;100587.13;4976046;27;98360;-73
2023/06/10 03:16:31;;;;;;;;;;;;;;;19.35;34.75;100590.66;4960629;27;98438;-73
2023/06/10 03:18:57;;;;;;;;;;;;;;;19.34;34.87;100589.06;4966334;27;98356;-73
2023/06/10 03:21:24;;;;;;;;;;;;;;;19.35;34.82;100598.06;4975609;27;97904;-73
2023/06/10 03:23:51;;;;;;;;;;;;;;;19.34;34.81;100591.78;4960004;27;98062;-67
2023/06/10 03:26:23;;;;;;;;;;;;;;;19.34;34.74;100593.72;4945140;27;99836;-73
2023/06/10 03:28:49;;;;;;;;;;;;;;;19.32;34.63;100596.75;4961069;27;98128;-74
2023/06/10 03:31:16;;;;;;;;;;;;;;;19.33;34.62;100592.09;4975205;27;99852;-72
2023/06/10 03:33:43;;;;;;;;;;;;;;;19.32;34.90;100598.69;4974919;27;98292;-67
2023/06/10 03:36:09;;;;;;;;;;;;;;;19.32;34.83;100601.44;4967687;27;98165;-74
2023/06/10 03:38:36;;;;;;;;;;;;;;;19.32;34.89;100607.69;4982161;27;99191;-74
2023/06/10 03:41:03;;;;;;;;;;;;;;;19.32;35.01;100613.16;4969318;27;100189;-74
2023/06/10 03:43:31;;;;;;;;;;;;;;;19.31;34.76;100614.28;4967817;27;97994;-74
2023/06/10 03:45:57;;;;;;;;;;;;;;;19.32;34.84;100610.44;4982456;27;98298;-67
2023/06/10 03:48:24;;;;;;;;;;;;;;;19.32;34.68;100615.09;4978562;27;98754;-67
2023/06/10 03:50:51;;;;;;;;;;;;;;;19.30;34.88;100612.69;4978556;27;98330;-67
2023/06/10 03:53:18;;;;;;;;;;;;;;;19.31;34.88;100608.84;4962913;27;98911;-74
2023/06/10 03:55:45;;;;;;;;;;;;;;;19.31;34.94;100613.50;4941749;27;98147;-73
2023/06/10 03:58:15;;;;;;;;;;;;;;;19.32;35.03;100610.44;4974579;27;98112;-74
2023/06/10 04:00:41;;;;;;;;;;;;;;;19.33;35.00;100622.16;4981612;27;98035;-73
2023/06/10 04:03:09;;;;;;;;;;;;;;;19.33;34.73;100620.22;4965636;27;98060;-74
2023/06/10 04:05:35;;;;;;;;;;;;;;;19.34;34.76;100623.78;4970045;27;98016;-73
2023/06/10 04:08:03;;;;;;;;;;;;;;;19.36;34.66;100627.78;4975118;27;99831;-67
2023/06/10 04:10:30;;;;;;;;;;;;;;;19.40;34.98;100624.41;4981850;27;98427;-67
2023/06/10 04:12:57;;;;;;;;;;;;;;;19.41;34.67;100632.28;4979491;27;98207;-74
2023/06/10 04:15:23;;;;;;;;;;;;;;;19.44;34.93;100630.84;4977456;27;98377;-73
2023/06/10 04:17:50;;;;;;;;;;;;;;;19.47;34.87;100628.28;4978754;27;98241;-74
2023/06/10 04:20:19;;;;;;;;;;;;;;;19.53;35.07;100631.63;4966139;27;98173;-67
2023/06/10 04:22:46;;;;;;;;;;;;;;;19.64;34.80;100635.66;4986880;27;99074;-71
2023/06/10 04:25:13;;;;;;;;;;;;;;;19.74;34.89;100629.06;4977334;27;98433;-74
2023/06/10 04:27:39;;;;;;;;;;;;;;;19.83;34.81;100629.84;4978033;27;99359;-67
2023/06/10 04:30:05;;;;;;;;;;;;;;;19.93;34.64;100631.44;4958057;27;98280;-67
2023/06/10 04:32:32;;;;;;;;;;;;;;;20.00;34.70;100629.81;4983598;27;98088;-67
2023/06/10 04:35:00;;;;;;;;;;;;;;;20.06;34.64;100630.44;4974546;27;98501;-67
2023/06/10 04:37:28;;;;;;;;;;;;;;;20.11;34.93;100628.31;4965823;27;98097;-67
2023/06/10 04:39:55;;;;;;;;;;;;;;;20.17;34.78;100628.94;4964705;27;98397;-67
2023/06/10 04:42:22;;;;;;;;;;;;;;;20.23;34.79;100627.63;4965476;27;98714;-67
2023/06/10 04:44:48;;;;;;;;;;;;;;;20.27;34.61;100625.84;4983314;27;99437;-67
2023/06/10 04:47:17;;;;;;;;;;;;;;;20.33;34.71;100631.94;4976963;27;99797;-67
2023/06/10 04:49:43;;;;;;;;;;;;;;;20.38;34.89;100629.00;4963417;27;98207;-74
2023/06/10 04:52:09;;;;;;;;;;;;;;;20.44;34.63;100635.91;4989347;27;99611;-74
2023/06/10 04:54:36;;;;;;;;;;;;;;;20.48;34.62;100634.13;4976138;27;98224;-71
2023/06/10 04:57:02;;;;;;;;;;;;;;;20.55;34.68;100639.94;4964493;27;98334;-67
2023/06/10 04:59:29;;;;;;;;;;;;;;;20.63;34.70;100640.19;4966538;27;98036;-74
2023/06/10 05:01:56;;;;;;;;;;;;;;;20.70;34.54;100637.75;4967337;27;98186;-68
2023/06/10 05:04:23;;;;;;;;;;;;;;;20.78;34.69;100637.69;4965678;27;97908;-68
2023/06/10 05:06:49;;;;;;;;;;;;;;;20.91;34.60;100646.00;4969281;27;98184;-67
2023/06/10 05:09:18;;;;;;;;;;;;;;;21.05;34.46;100644.59;4973271;27;98823;-67
2023/06/10 05:11:46;;;;;;;;;;;;;;;21.21;34.41;100646.72;4963269;27;98360;-74
2023/06/10 05:14:13;;;;;;;;;;;;;;;21.36;34.41;100645.38;4962669;27;98194;-73
2023/06/10 05:16:39;;;;;;;;;;;;;;;21.50;34.24;100641.22;4962145;27;99366;-74
2023/06/10 05:19:06;;;;;;;;;;;;;;;21.66;34.17;100649.59;4974180;27;98211;-74
2023/06/10 05:21:33;;;;;;;;;;;;;;;21.80;34.22;100647.34;4957288;27;98092;-74
2023/06/10 05:23:59;;;;;;;;;;;;;;;21.97;34.03;100651.06;4961898;27;98132;-74
2023/06/10 05:26:26;;;;;;;;;;;;;;;22.13;34.00;100645.72;4993210;27;98240;-68
2023/06/10 05:28:53;;;;;;;;;;;;;;;22.29;33.98;100644.75;4961464;27;99395;-74
2023/06/10 05:31:19;;;;;;;;;;;;;;;22.46;34.00;100642.91;4958890;27;98185;-74
2023/06/10 05:33:46;;;;;;;;;;;;;;;22.63;33.71;100648.16;4962134;27;98047;-74
2023/06/10 05:36:12;;;;;;;;;;;;;;;22.83;33.83;100648.38;4970927;27;98927;-74
2023/06/10 05:38:40;;;;;;;;;;;;;;;23.04;33.61;100651.81;4961960;27;98442;-68
2023/06/10 05:41:07;;;;;;;;;;;;;;;23.23;33.51;100653.97;4962261;27;98718;-68
2023/06/10 05:43:33;;;;;;;;;;;;;;;23.46;33.69;100659.69;4961016;27;98233;-74
2023/06/10 05:46:00;;;;;;;;;;;;;;;23.73;33.73;100652.63;4960428;27;98032;-67
2023/06/10 05:48:27;;;;;;;;;;;;;;;24.08;33.61;100646.47;4074614;27;10000720;-74
2023/06/10 05:50:54;;;;;;;;;;;;;;;24.46;33.46;100649.44;4963915;27;98280;-74
2023/06/10 05:53:21;;;;;;;;;;;;;;;24.87;33.27;100660.22;4943576;27;98257;-68
2023/06/10 05:55:48;;;;;;;;;;;;;;;25.57;32.78;100654.63;4958472;27;99882;-74
2023/06/10 05:58:15;;;;;;;;;;;;;;;25.73;33.11;100648.22;4941752;27;98235;-74
2023/06/10 06:00:43;;;;;;;;;;;;;;;26.08;32.97;100645.34;4977080;27;98830;-69
2023/06/10 06:03:09;;;;;;;;;;;;;;;26.49;33.30;100645.63;4946943;27;98471;-74
2023/06/10 06:05:37;;;;;;;;;;;;;;;26.99;33.07;100652.69;4947289;27;98122;-69
2023/06/10 06:08:04;;;;;;;;;;;;;;;27.68;32.81;100649.63;4965441;27;98032;-74
2023/06/10 06:10:31;;;;;;;;;;;;;;;29.58;31.38;100660.16;4948011;27;99892;-74
2023/06/10 06:12:58;;;;;;;;;;;;;;;31.05;30.00;100664.56;4947544;27;98262;-69
2023/06/10 06:15:26;;;;;;;;;;;;;;;30.54;31.22;100676.19;4938052;27;98520;-69
2023/06/10 06:17:53;;;;;;;;;;;;;;;30.36;31.47;100667.84;4939975;27;98297;-74
2023/06/10 06:20:20;;;;;;;;;;;;;;;31.03;31.24;100668.94;4945681;27;98069;-69
2023/06/10 06:22:47;;;;;;;;;;;;;;;31.59;31.31;100669.94;4946545;27;98817;-72
2023/06/10 06:25:15;;;;;;;;;;;;;;;32.03;31.37;100665.72;4954116;27;100607;-67
2023/06/10 06:27:42;;;;;;;;;;;;;;;32.83;31.19;100663.84;4941169;27;98348;-67
2023/06/10 06:30:10;;;;;;;;;;;;;;;33.71;30.47;100673.16;4941336;27;98432;-67
2023/06/10 06:32:37;;;;;;;;;;;;;;;35.01;29.97;100671.84;4943783;27;98400;-67
2023/06/10 06:35:05;;;;;;;;;;;;;;;35.32;29.73;100672.41;4952810;27;101555;-71
2023/06/10 06:37:32;;;;;;;;;;;;;;;35.33;30.08;100677.59;4958911;27;98050;-67
2023/06/10 06:39:58;;;;;;;;;;;;;;;35.42;29.94;100674.97;4938676;27;101024;-71
2023/06/10 06:42:27;;;;;;;;;;;;;;;35.00;30.16;100670.25;4951992;27;99977;-67
2023/06/10 06:44:53;;;;;;;;;;;;;;;34.80;30.67;100676.59;4942396;27;98643;-71
2023/06/10 06:47:21;;;;;;;;;;;;;;;34.66;30.89;100663.69;4943226;27;98314;-72
2023/06/10 06:49:48;;;;;;;;;;;;;;;34.52;30.85;100663.16;4953097;27;98119;-67
2023/06/10 06:52:15;;;;;;;;;;;;;;;34.49;30.97;100666.78;4938471;27;98331;-71
2023/06/10 06:54:41;;;;;;;;;;;;;;;34.66;30.53;100668.47;4956324;27;99924;-67
2023/06/10 06:57:08;;;;;;;;;;;;;;;34.95;30.30;100653.94;4938856;27;98121;-67
2023/06/10 06:59:35;;;;;;;;;;;;;;;35.33;30.17;100666.38;4943708;27;98324;-71
2023/06/10 07:02:02;;;;;;;;;;;;;;;35.61;30.13;100669.81;4938795;27;98385;-71
2023/06/10 07:04:28;;;;;;;;;;;;;;;35.93;29.99;100660.66;4955842;27;98163;-70
2023/06/10 07:06:55;;;;;;;;;;;;;;;36.40;29.84;100667.94;4956703;27;98404;-70
2023/06/10 07:09:22;;;;;;;;;;;;;;;36.82;29.44;100674.44;4959528;27;98392;-67
2023/06/10 07:11:49;;;;;;;;;;;;;;;37.14;29.17;100664.34;4944652;27;98206;-67
2023/06/10 07:14:15;;;;;;;;;;;;;;;37.38;28.88;100665.66;4948781;27;98072;-68
2023/06/10 07:16:45;;;;;;;;;;;;;;;37.53;29.02;100680.06;4962273;27;98108;-71
2023/06/10 07:19:11;;;;;;;;;;;;;;;37.75;28.86;100675.38;4948643;27;98613;-70
2023/06/10 07:21:47;;;;;;;;;;;;;;;37.91;29.05;100680.13;4952052;27;98133;-68
2023/06/10 07:24:13;;;;;;;;;;;;;;;38.11;28.75;100679.88;4961636;27;101341;-71
2023/06/10 07:26:39;;;;;;;;;;;;;;;38.35;29.22;100676.72;4944773;27;98205;-71
2023/06/10 07:29:06;;;;;;;;;;;;;;;38.59;28.82;100671.44;4947580;27;98128;-71
2023/06/10 07:31:33;;;;;;;;;;;;;;;38.82;29.02;100675.91;4949030;27;98222;-70
2023/06/10 07:34:00;;;;;;;;;;;;;;;39.02;28.71;100679.16;4949640;27;98477;-71
2023/06/10 07:36:28;;;;;;;;;;;;;;;39.15;28.93;100679.13;4945559;27;98207;-71
2023/06/10 07:38:55;;;;;;;;;;;;;;;39.32;28.93;100680.50;4946060;27;98073;-71
2023/06/10 07:41:22;;;;;;;;;;;;;;;39.51;28.80;100679.34;4942560;27;99696;-70
2023/06/10 07:43:54;;;;;;;;;;;;;;;39.81;28.59;100679.03;4946301;27;98045;-70
2023/06/10 07:46:21;;;;;;;;;;;;;;;40.26;28.46;100686.09;4961320;27;98230;-71
2023/06/10 07:48:48;;;;;;;;;;;;;;;40.74;28.18;100675.94;4961525;27;98466;-70
2023/06/10 07:51:16;;;;;;;;;;;;;;;41.25;28.10;100675.25;4946516;27;98111;-71
2023/06/10 07:53:43;;;;;;;;;;;;;;;41.71;27.69;100675.13;4947113;27;98552;-72
2023/06/10 07:56:09;;;;;;;;;;;;;;;42.05;27.85;100673.09;4950639;27;99779;-71
2023/06/10 07:58:36;;;;;;;;;;;;;;;42.55;27.67;100677.00;4948797;27;98004;-71
2023/06/10 08:01:03;;;;;;;;;;;;;;;42.99;27.23;100678.38;4951879;27;99353;-72
2023/06/10 08:03:30;;;;;;;;;;;;;;;43.37;26.99;100677.53;4948642;27;101994;-70
2023/06/10 08:05:57;;;;;;;;;;;;;;;43.88;27.20;100679.13;4945681;27;98899;-70
2023/06/10 08:08:23;;;;;;;;;;;;;;;44.40;26.87;100667.19;4947217;27;98122;-70
2023/06/10 08:10:50;;;;;;;;;;;;;;;44.92;26.61;100676.56;4949929;27;99049;-71
2023/06/10 08:13:20;;;;;;;;;;;;;;;45.51;26.25;100670.41;4961781;27;99304;-70
2023/06/10 08:15:50;;;;;;;;;;;;;;;45.99;26.16;100668.94;4963918;27;98110;-71
2023/06/10 08:18:16;;;;;;;;;;;;;;;46.49;26.16;100665.50;4952662;27;98210;-71
2023/06/10 08:20:44;;;;;;;;;;;;;;;46.83;26.10;100663.53;4942455;27;98646;-72
2023/06/10 08:23:11;;;;;;;;;;;;;;;47.09;25.92;100671.13;4940442;27;99206;-71
2023/06/10 08:25:38;;;;;;;;;;;;;;;47.52;25.92;100662.28;4946794;27;98287;-72
2023/06/10 08:28:05;;;;;;;;;;;;;;;47.81;25.59;100669.53;4949428;27;98478;-71
2023/06/10 08:30:33;;;;;;;;;;;;;;;48.12;25.70;100660.63;4948835;27;98309;-71
2023/06/10 08:33:00;;;;;;;;;;;;;;;48.39;25.40;100664.66;4948362;27;98278;-71
2023/06/10 08:35:26;;;;;;;;;;;;;;;48.38;25.86;100665.16;4957474;27;98379;-72
2023/06/10 08:37:53;;;;;;;;;;;;;;;48.43;25.72;100667.25;4940641;27;98411;-71
2023/06/10 08:40:19;;;;;;;;;;;;;;;48.62;25.81;100676.75;4946877;27;98875;-73
2023/06/10 08:42:54;;;;;;;;;;;;;;;48.82;25.77;100672.75;4936283;27;98308;-72
2023/06/10 08:45:20;;;;;;;;;;;;;;;49.21;25.53;100679.47;4974177;27;98123;-70
2023/06/10 08:47:48;;;;;;;;;;;;;;;49.28;25.49;100665.38;4945879;27;98497;-72
2023/06/10 08:50:15;;;;;;;;;;;;;;;49.47;25.08;100671.19;4946617;27;105341;-72
2023/06/10 08:52:43;;;;;;;;;;;;;;;49.68;25.37;100665.00;4959333;27;99483;-71
2023/06/10 08:55:17;;;;;;;;;;;;;;;49.67;25.44;100667.09;4940727;27;98245;-72
2023/06/10 08:57:47;;;;;;;;;;;;;;;50.07;25.28;100655.97;4949978;27;99987;-71
2023/06/10 09:00:15;;;;;;;;;;;;;;;50.32;25.40;100657.50;4963671;27;98506;-71
2023/06/10 09:02:43;;;;;;;;;;;;;;;50.44;25.32;100652.41;4959558;27;98141;-72
2023/06/10 09:05:10;;;;;;;;;;;;;;;50.68;24.91;100650.78;4944247;27;98449;-71
2023/06/10 09:07:37;;;;;;;;;;;;;;;50.79;24.99;100644.88;4945112;27;98975;-71
2023/06/10 09:10:07;;;;;;;;;;;;;;;50.83;24.68;100648.19;4957455;27;98370;-72
2023/06/10 09:12:35;;;;;;;;;;;;;;;50.80;25.17;100649.28;4946627;27;98564;-71
2023/06/10 09:15:02;;;;;;;;;;;;;;;50.86;24.73;100643.44;4943767;27;98370;-71
2023/06/10 09:17:29;;;;;;;;;;;;;;;50.32;25.63;100639.56;4959221;27;98143;-71
2023/06/10 09:19:56;;;;;;;;;;;;;;;49.26;26.02;100642.25;4958923;27;98228;-72
2023/06/10 09:22:24;;;;;;;;;;;;;;;48.63;26.52;100634.66;4944381;27;98316;-72
2023/06/10 09:24:50;;;;;;;;;;;;;;;48.16;26.75;100629.72;4957148;27;98268;-72
2023/06/10 09:27:16;;;;;;;;;;;;;;;47.19;27.50;100626.78;4958005;27;98731;-71
2023/06/10 09:29:57;;;;;;;;;;;;;;;47.25;27.09;100618.22;4960592;27;98341;-71
2023/06/10 09:32:24;;;;;;;;;;;;;;;45.49;28.23;100627.47;4943216;27;98348;-70
2023/06/10 09:34:50;;;;;;;;;;;;;;;46.79;26.81;100622.34;4955328;27;98226;-72
2023/06/10 09:37:23;;;;;;;;;;;;;;;46.06;27.39;100619.25;4958657;27;98563;-70
2023/06/10 09:40:06;;;;;;;;;;;;;;;46.24;27.23;100624.53;4945870;27;98677;-70
2023/06/10 09:42:35;;;;;;;;;;;;;;;47.86;25.61;100635.25;4944172;27;98379;-71
2023/06/10 09:45:03;;;;;;;;;;;;;;;48.57;25.22;100631.06;4940116;27;98128;-70
2023/06/10 09:47:30;;;;;;;;;;;;;;;49.15;25.12;100633.78;4944892;27;98474;-70
2023/06/10 09:49:58;;;;;;;;;;;;;;;49.10;25.05;100629.63;4942763;27;98232;-70
2023/06/10 09:52:26;;;;;;;;;;;;;;;49.54;24.90;100624.06;4952968;27;98643;-70
2023/06/10 09:54:54;;;;;;;;;;;;;;;50.08;24.65;100618.22;4942275;27;98488;-72
2023/06/10 09:57:21;;;;;;;;;;;;;;;50.71;24.52;100626.75;4941937;27;98383;-70
2023/06/10 09:59:48;;;;;;;;;;;;;;;48.01;26.25;100612.09;4945030;27;99798;-72
2023/06/10 10:02:18;;;;;;;;;;;;;;;47.97;26.28;100617.31;4942372;27;98518;-72
2023/06/10 10:04:44;;;;;;;;;;;;;;;49.38;25.04;100622.91;4944562;27;98137;-70
2023/06/10 10:07:11;;;;;;;;;;;;;;;49.75;24.88;100636.56;4959700;27;98197;-72
2023/06/10 10:09:41;;;;;;;;;;;;;;;49.93;24.84;100626.50;4963884;27;98103;-70
2023/06/10 10:12:10;;;;;;;;;;;;;;;50.13;24.87;100625.19;4965486;27;98310;-70
2023/06/10 10:14:36;;;;;;;;;;;;;;;48.22;26.54;100620.31;4944570;27;98569;-72
2023/06/10 10:17:04;;;;;;;;;;;;;;;48.85;25.81;100617.34;4957628;27;97968;-70
2023/06/10 10:19:37;;;;;;;;;;;;;;;46.01;27.88;100603.72;4955272;27;98060;-70
2023/06/10 10:22:10;;;;;;;;;;;;;;;46.42;27.28;100615.53;4954091;27;116565;-72
2023/06/10 10:24:38;;;;;;;;;;;;;;;47.39;25.98;100623.66;4944839;27;98259;-72
2023/06/10 10:27:12;;;;;;;;;;;;;;;47.82;26.01;100623.31;4937802;27;98471;-72
2023/06/10 10:29:40;;;;;;;;;;;;;;;48.28;25.63;100616.16;4957770;27;100522;-70
2023/06/10 10:32:07;;;;;;;;;;;;;;;48.65;25.54;100617.75;4964271;27;98226;-72
2023/06/10 10:34:43;;;;;;;;;;;;;;;48.90;25.60;100607.97;4947883;27;98028;-72
2023/06/10 10:37:10;;;;;;;;;;;;;;;48.98;25.38;100616.75;4958112;27;98625;-73
2023/06/10 10:39:37;;;;;;;;;;;;;;;49.18;25.39;100617.66;4945359;27;98355;-70
2023/06/10 10:42:04;;;;;;;;;;;;;;;49.24;25.36;100612.63;4958293;27;98176;-72
2023/06/10 10:44:31;;;;;;;;;;;;;;;49.36;25.38;100606.25;4944410;27;98773;-73
2023/06/10 10:46:57;;;;;;;;;;;;;;;49.36;25.13;100609.13;4942679;27;98436;-70
2023/06/10 10:49:24;;;;;;;;;;;;;;;49.55;25.17;100606.34;4954710;27;98229;-73
2023/06/10 10:52:00;;;;;;;;;;;;;;;49.71;24.98;100606.69;4947864;27;99720;-71
2023/06/10 10:54:31;;;;;;;;;;;;;;;49.48;25.09;100606.94;4957985;27;105266;-73
2023/06/10 10:57:17;;;;;;;;;;;;;;;49.43;25.15;100599.16;4941938;27;98559;-71
2023/06/10 10:59:45;;;;;;;;;;;;;;;49.29;25.15;100591.81;4976216;27;98241;-73
2023/06/10 11:02:17;;;;;;;;;;;;;;;49.20;25.32;100598.63;4969051;27;99599;-72
2023/06/10 11:04:50;;;;;;;;;;;;;;;49.11;25.21;100599.72;4960650;27;98004;-72
2023/06/10 11:07:21;;;;;;;;;;;;;;;49.06;25.30;100609.13;4944983;27;98524;-73
2023/06/10 11:10:09;;;;;;;;;;;;;;;48.72;25.56;100591.47;4941638;27;98257;-70
2023/06/10 11:12:46;;;;;;;;;;;;;;;48.76;25.37;100591.94;4941688;27;98717;-71
2023/06/10 11:15:15;;;;;;;;;;;;;;;48.80;25.30;100589.59;4989640;27;98230;-70
2023/06/10 11:18:10;;;;;;;;;;;;;;;48.84;25.42;100589.31;4969814;27;98255;-70
2023/06/10 11:20:50;;;;;;;;;;;;;;;48.75;25.09;100587.53;4973516;27;98715;-70
2023/06/10 11:23:29;;;;;;;;;;;;;;;48.22;25.75;100577.50;4954471;27;102302;-70
2023/06/10 11:26:13;;;;;;;;;;;;;;;45.27;27.81;100576.09;4977633;27;98085;-70
2023/06/10 11:29:01;;;;;;;;;;;;;;;44.64;28.10;100581.72;4959274;27;98271;-72
2023/06/10 11:31:38;;;;;;;;;;;;;;;42.74;28.92;100566.41;4964692;27;100145;-72
2023/06/10 11:34:06;;;;;;;;;;;;;;;43.54;27.88;100573.66;4942591;27;100070;-71
2023/06/10 11:36:34;;;;;;;;;;;;;;;43.18;27.92;100569.22;4947440;27;98112;-70
2023/06/10 11:39:04;;;;;;;;;;;;;;;43.13;28.22;100573.53;4946593;27;98903;-72
2023/06/10 11:41:31;;;;;;;;;;;;;;;43.72;27.37;100566.94;4960699;27;98483;-72
2023/06/10 11:44:06;;;;;;;;;;;;;;;42.83;28.09;100567.09;4955492;27;98502;-70
2023/06/10 11:46:37;;;;;;;;;;;;;;;41.17;29.18;100558.94;4939027;27;97988;-70
2023/06/10 11:49:05;;;;;;;;;;;;;;;41.96;28.54;100557.94;4935118;27;98337;-71
2023/06/10 11:51:44;;;;;;;;;;;;;;;41.82;28.18;100556.63;4946839;27;98006;-71
2023/06/10 11:54:11;;;;;;;;;;;;;;;42.32;27.88;100567.41;4962287;27;98466;-72
2023/06/10 11:56:37;;;;;;;;;;;;;;;41.94;28.05;100549.16;4976571;27;98453;-69
2023/06/10 11:59:06;;;;;;;;;;;;;;;41.68;28.28;100560.91;4945453;27;98092;-70
2023/06/10 12:01:34;;;;;;;;;;;;;;;41.92;28.29;100552.44;4945500;27;98154;-70
2023/06/10 12:04:04;;;;;;;;;;;;;;;42.06;27.90;100559.44;4958970;27;98696;-69
2023/06/10 12:06:43;;;;;;;;;;;;;;;42.21;27.72;100550.19;4962707;27;100168;-71
2023/06/10 12:09:25;;;;;;;;;;;;;;;41.76;27.71;100550.03;4982614;27;98134;-69
2023/06/10 12:12:08;;;;;;;;;;;;;;;42.06;27.62;100567.91;4961298;27;99196;-71
2023/06/10 12:14:56;;;;;;;;;;;;;;;42.22;27.29;100563.88;4948639;27;98367;-71
2023/06/10 12:17:31;;;;;;;;;;;;;;;41.90;27.75;100565.53;4964661;27;98312;-69
2023/06/10 12:19:57;;;;;;;;;;;;;;;42.01;27.76;100560.09;4962514;27;98361;-72
2023/06/10 12:22:24;;;;;;;;;;;;;;;42.14;27.25;100560.63;4934899;27;100420;-69
2023/06/10 12:25:04;;;;;;;;;;;;;;;42.06;27.68;100555.81;4944069;27;99841;-71
2023/06/10 12:27:31;;;;;;;;;;;;;;;42.11;27.66;100553.09;4943989;27;98238;-69
2023/06/10 12:30:03;;;;;;;;;;;;;;;42.02;27.29;100541.09;4950612;27;98494;-71
2023/06/10 12:32:43;;;;;;;;;;;;;;;41.91;27.48;100544.47;4941120;27;98029;-69
2023/06/10 12:35:12;;;;;;;;;;;;;;;42.02;27.54;100543.91;4951977;27;98252;-71
2023/06/10 12:37:39;;;;;;;;;;;;;;;41.82;27.59;100538.88;4966300;27;98974;-70
2023/06/10 12:40:06;;;;;;;;;;;;;;;41.16;27.91;100526.31;4956095;27;98483;-70
2023/06/10 12:42:35;;;;;;;;;;;;;;;41.49;27.63;100534.00;4957742;27;99194;-70